sensor_id;sensor_type;location;lat;lon;timestamp;temperature;humidity
19646;DHT22;9971;52.446;13.452;2022-08-03T00:00:58;20.70;99.90
19646;DHT22;9971;52.446;13.452;2022-08-03T00:06:01;20.70;99.90
19646;DHT22;9971;52.446;13.452;2022-08-03T00:11:03;20.70;99.90
19646;DHT22;9971;52.446;13.452;2022-08-03T00:16:05;20.70;99.90
19646;DHT22;9971;52.446;13.452;2022-08-03T00:21:07;20.70;99.90
19646;DHT22;9971;52.446;13.452;2022-08-03T00:26:09;20.70;99.90
19646;DHT22;9971;52.446;13.452;2022-08-03T00:31:12;20.80;99.90
19646;DHT22;9971;52.446;13.452;2022-08-03T00:36:14;20.70;99.90
19646;DHT22;9971;52.446;13.452;2022-08-03T00:41:16;20.80;99.90
19646;DHT22;9971;52.446;13.452;2022-08-03T00:46:19;20.70;99.90
19646;DHT22;9971;52.446;13.452;2022-08-03T00:51:21;20.50;99.90
19646;DHT22;9971;52.446;13.452;2022-08-03T00:56:23;20.50;99.90
19646;DHT22;9971;52.446;13.452;2022-08-03T01:01:25;20.50;99.90
19646;DHT22;9971;52.446;13.452;2022-08-03T01:06:33;20.50;99.90
19646;DHT22;9971;52.446;13.452;2022-08-03T01:11:40;20.50;99.90
19646;DHT22;9971;52.446;13.452;2022-08-03T01:16:47;20.40;99.90
19646;DHT22;9971;52.446;13.452;2022-08-03T01:26:59;20.50;99.90
19646;DHT22;9971;52.446;13.452;2022-08-03T01:32:01;20.60;99.90
19646;DHT22;9971;52.446;13.452;2022-08-03T01:37:02;20.70;99.90
19646;DHT22;9971;52.446;13.452;2022-08-03T01:42:04;20.80;99.90
19646;DHT22;9971;52.446;13.452;2022-08-03T01:47:05;20.90;99.90
19646;DHT22;9971;52.446;13.452;2022-08-03T01:52:07;20.90;99.90
19646;DHT22;9971;52.446;13.452;2022-08-03T01:57:10;21.00;99.90
19646;DHT22;9971;52.446;13.452;2022-08-03T02:02:12;21.10;99.90
19646;DHT22;9971;52.446;13.452;2022-08-03T02:07:14;21.20;99.90
19646;DHT22;9971;52.446;13.452;2022-08-03T02:12:16;21.20;99.90
19646;DHT22;9971;52.446;13.452;2022-08-03T02:17:18;21.30;99.90
19646;DHT22;9971;52.446;13.452;2022-08-03T02:22:20;21.30;99.90
19646;DHT22;9971;52.446;13.452;2022-08-03T02:27:22;21.30;99.90
19646;DHT22;9971;52.446;13.452;2022-08-03T02:32:29;21.40;99.90
19646;DHT22;9971;52.446;13.452;2022-08-03T02:37:28;21.40;99.90
19646;DHT22;9971;52.446;13.452;2022-08-03T02:42:28;21.40;99.90
19646;DHT22;9971;52.446;13.452;2022-08-03T02:47:30;21.50;99.90
19646;DHT22;9971;52.446;13.452;2022-08-03T02:52:32;21.50;99.90
19646;DHT22;9971;52.446;13.452;2022-08-03T02:57:34;21.40;99.90
19646;DHT22;9971;52.446;13.452;2022-08-03T03:02:36;21.40;99.90
19646;DHT22;9971;52.446;13.452;2022-08-03T03:07:39;21.40;99.90
19646;DHT22;9971;52.446;13.452;2022-08-03T03:12:41;21.50;99.90
19646;DHT22;9971;52.446;13.452;2022-08-03T03:17:44;21.50;99.90
19646;DHT22;9971;52.446;13.452;2022-08-03T03:22:46;21.50;99.90
19646;DHT22;9971;52.446;13.452;2022-08-03T03:27:47;21.40;99.90
19646;DHT22;9971;52.446;13.452;2022-08-03T03:32:49;21.30;99.90
19646;DHT22;9971;52.446;13.452;2022-08-03T03:37:52;21.20;99.90
19646;DHT22;9971;52.446;13.452;2022-08-03T03:42:54;21.20;99.90
19646;DHT22;9971;52.446;13.452;2022-08-03T03:47:56;21.10;99.90
19646;DHT22;9971;52.446;13.452;2022-08-03T03:52:58;20.90;99.90
19646;DHT22;9971;52.446;13.452;2022-08-03T03:58:00;20.90;99.90
19646;DHT22;9971;52.446;13.452;2022-08-03T04:03:03;20.80;99.90
19646;DHT22;9971;52.446;13.452;2022-08-03T04:08:07;20.70;99.90
19646;DHT22;9971;52.446;13.452;2022-08-03T04:13:13;20.70;99.90
19646;DHT22;9971;52.446;13.452;2022-08-03T04:18:15;20.70;99.90
19646;DHT22;9971;52.446;13.452;2022-08-03T04:23:18;20.80;99.90
19646;DHT22;9971;52.446;13.452;2022-08-03T04:28:19;20.90;99.90
19646;DHT22;9971;52.446;13.452;2022-08-03T04:33:21;20.90;99.90
19646;DHT22;9971;52.446;13.452;2022-08-03T04:38:23;20.90;99.90
19646;DHT22;9971;52.446;13.452;2022-08-03T04:43:25;21.00;99.90
19646;DHT22;9971;52.446;13.452;2022-08-03T04:48:27;21.00;99.90
19646;DHT22;9971;52.446;13.452;2022-08-03T04:53:29;21.10;99.90
19646;DHT22;9971;52.446;13.452;2022-08-03T04:58:31;21.20;99.90
19646;DHT22;9971;52.446;13.452;2022-08-03T05:03:34;21.30;99.90
19646;DHT22;9971;52.446;13.452;2022-08-03T05:08:36;21.40;99.90
19646;DHT22;9971;52.446;13.452;2022-08-03T05:13:38;21.60;99.90
19646;DHT22;9971;52.446;13.452;2022-08-03T05:18:41;21.60;99.90
19646;DHT22;9971;52.446;13.452;2022-08-03T05:23:43;21.80;99.90
19646;DHT22;9971;52.446;13.452;2022-08-03T05:28:45;21.90;99.90
19646;DHT22;9971;52.446;13.452;2022-08-03T05:33:47;22.00;99.90
19646;DHT22;9971;52.446;13.452;2022-08-03T05:38:50;22.20;99.90
19646;DHT22;9971;52.446;13.452;2022-08-03T05:43:52;22.40;99.90
19646;DHT22;9971;52.446;13.452;2022-08-03T05:48:54;22.50;99.90
19646;DHT22;9971;52.446;13.452;2022-08-03T05:53:56;22.70;99.90
19646;DHT22;9971;52.446;13.452;2022-08-03T05:58:59;22.80;99.90
19646;DHT22;9971;52.446;13.452;2022-08-03T06:04:02;22.90;99.90
19646;DHT22;9971;52.446;13.452;2022-08-03T06:09:04;23.10;99.90
19646;DHT22;9971;52.446;13.452;2022-08-03T06:14:07;23.30;99.90
19646;DHT22;9971;52.446;13.452;2022-08-03T06:19:10;23.40;99.90
19646;DHT22;9971;52.446;13.452;2022-08-03T06:24:13;23.60;99.90
19646;DHT22;9971;52.446;13.452;2022-08-03T06:29:15;23.80;99.90
19646;DHT22;9971;52.446;13.452;2022-08-03T06:34:18;24.00;99.90
19646;DHT22;9971;52.446;13.452;2022-08-03T06:39:20;24.10;99.90
19646;DHT22;9971;52.446;13.452;2022-08-03T06:44:22;24.40;99.90
19646;DHT22;9971;52.446;13.452;2022-08-03T06:49:25;24.50;99.90
19646;DHT22;9971;52.446;13.452;2022-08-03T06:54:27;24.70;99.90
19646;DHT22;9971;52.446;13.452;2022-08-03T06:59:29;25.00;99.20
19646;DHT22;9971;52.446;13.452;2022-08-03T07:04:32;25.20;98.30
19646;DHT22;9971;52.446;13.452;2022-08-03T07:09:34;25.40;97.90
19646;DHT22;9971;52.446;13.452;2022-08-03T07:14:37;25.70;96.30
19646;DHT22;9971;52.446;13.452;2022-08-03T07:19:39;25.80;94.70
19646;DHT22;9971;52.446;13.452;2022-08-03T07:24:41;26.00;94.60
19646;DHT22;9971;52.446;13.452;2022-08-03T07:29:43;26.10;94.30
19646;DHT22;9971;52.446;13.452;2022-08-03T07:34:46;26.20;94.30
19646;DHT22;9971;52.446;13.452;2022-08-03T07:39:49;26.30;93.90
19646;DHT22;9971;52.446;13.452;2022-08-03T07:44:51;26.60;93.70
19646;DHT22;9971;52.446;13.452;2022-08-03T07:49:54;26.60;92.50
19646;DHT22;9971;52.446;13.452;2022-08-03T07:54:56;26.80;92.70
19646;DHT22;9971;52.446;13.452;2022-08-03T07:59:58;26.90;92.20
19646;DHT22;9971;52.446;13.452;2022-08-03T08:05:01;27.00;91.60
19646;DHT22;9971;52.446;13.452;2022-08-03T08:10:05;27.30;91.60
19646;DHT22;9971;52.446;13.452;2022-08-03T08:15:07;27.60;91.30
19646;DHT22;9971;52.446;13.452;2022-08-03T08:20:09;27.80;90.50
19646;DHT22;9971;52.446;13.452;2022-08-03T08:25:11;27.90;90.20
19646;DHT22;9971;52.446;13.452;2022-08-03T08:30:14;28.10;90.10
19646;DHT22;9971;52.446;13.452;2022-08-03T08:35:16;28.30;88.90
19646;DHT22;9971;52.446;13.452;2022-08-03T08:40:19;28.50;88.70
19646;DHT22;9971;52.446;13.452;2022-08-03T08:45:20;28.60;87.50
19646;DHT22;9971;52.446;13.452;2022-08-03T08:50:22;28.80;84.70
19646;DHT22;9971;52.446;13.452;2022-08-03T08:55:24;28.90;83.70
19646;DHT22;9971;52.446;13.452;2022-08-03T09:00:26;29.10;82.60
19646;DHT22;9971;52.446;13.452;2022-08-03T09:05:28;29.30;77.90
19646;DHT22;9971;52.446;13.452;2022-08-03T09:10:31;29.40;79.60
19646;DHT22;9971;52.446;13.452;2022-08-03T09:15:33;29.50;79.40
19646;DHT22;9971;52.446;13.452;2022-08-03T09:20:35;29.80;77.20
19646;DHT22;9971;52.446;13.452;2022-08-03T09:25:38;30.20;77.40
19646;DHT22;9971;52.446;13.452;2022-08-03T09:30:41;30.30;76.80
19646;DHT22;9971;52.446;13.452;2022-08-03T09:35:42;30.60;76.30
19646;DHT22;9971;52.446;13.452;2022-08-03T09:40:44;30.80;75.70
19646;DHT22;9971;52.446;13.452;2022-08-03T09:45:46;31.10;73.20
19646;DHT22;9971;52.446;13.452;2022-08-03T09:50:49;31.10;74.90
19646;DHT22;9971;52.446;13.452;2022-08-03T09:55:53;31.30;72.30
19646;DHT22;9971;52.446;13.452;2022-08-03T10:00:58;31.30;71.80
19646;DHT22;9971;52.446;13.452;2022-08-03T10:05:59;31.40;71.60
19646;DHT22;9971;52.446;13.452;2022-08-03T10:11:01;31.90;70.00
19646;DHT22;9971;52.446;13.452;2022-08-03T10:16:04;31.90;68.60
19646;DHT22;9971;52.446;13.452;2022-08-03T10:21:07;32.10;65.80
19646;DHT22;9971;52.446;13.452;2022-08-03T10:26:08;32.20;66.40
19646;DHT22;9971;52.446;13.452;2022-08-03T10:31:10;32.10;66.10
19646;DHT22;9971;52.446;13.452;2022-08-03T10:36:12;32.50;65.10
19646;DHT22;9971;52.446;13.452;2022-08-03T10:41:14;32.70;64.00
19646;DHT22;9971;52.446;13.452;2022-08-03T10:46:16;32.90;63.60
19646;DHT22;9971;52.446;13.452;2022-08-03T10:51:18;33.00;62.90
19646;DHT22;9971;52.446;13.452;2022-08-03T10:56:37;33.20;62.80
19646;DHT22;9971;52.446;13.452;2022-08-03T11:01:54;33.70;62.60
19646;DHT22;9971;52.446;13.452;2022-08-03T11:07:18;33.60;62.10
19646;DHT22;9971;52.446;13.452;2022-08-03T11:12:23;33.70;61.30
19646;DHT22;9971;52.446;13.452;2022-08-03T11:17:23;33.60;62.20
19646;DHT22;9971;52.446;13.452;2022-08-03T11:22:25;33.90;61.60
19646;DHT22;9971;52.446;13.452;2022-08-03T11:27:31;34.10;60.60
19646;DHT22;9971;52.446;13.452;2022-08-03T11:32:52;34.10;60.10
19646;DHT22;9971;52.446;13.452;2022-08-03T11:38:09;34.40;59.80
19646;DHT22;9971;52.446;13.452;2022-08-03T11:43:45;34.40;59.70
19646;DHT22;9971;52.446;13.452;2022-08-03T11:48:47;34.80;59.10
19646;DHT22;9971;52.446;13.452;2022-08-03T11:53:53;35.20;58.10
19646;DHT22;9971;52.446;13.452;2022-08-03T11:58:55;35.20;58.30
19646;DHT22;9971;52.446;13.452;2022-08-03T12:04:01;35.40;58.10
19646;DHT22;9971;52.446;13.452;2022-08-03T12:08:58;35.30;58.40
19646;DHT22;9971;52.446;13.452;2022-08-03T12:14:01;35.70;58.30
19646;DHT22;9971;52.446;13.452;2022-08-03T12:19:04;35.20;57.40
19646;DHT22;9971;52.446;13.452;2022-08-03T12:24:05;35.10;58.90
19646;DHT22;9971;52.446;13.452;2022-08-03T12:29:08;34.90;58.20
19646;DHT22;9971;52.446;13.452;2022-08-03T12:34:10;35.90;56.70
19646;DHT22;9971;52.446;13.452;2022-08-03T12:39:11;36.30;56.40
19646;DHT22;9971;52.446;13.452;2022-08-03T12:44:14;36.20;55.70
19646;DHT22;9971;52.446;13.452;2022-08-03T12:49:16;36.10;57.30
19646;DHT22;9971;52.446;13.452;2022-08-03T12:54:19;36.30;56.20
19646;DHT22;9971;52.446;13.452;2022-08-03T12:59:23;36.40;55.50
19646;DHT22;9971;52.446;13.452;2022-08-03T13:04:29;36.30;55.40
19646;DHT22;9971;52.446;13.452;2022-08-03T13:09:38;36.30;55.40
19646;DHT22;9971;52.446;13.452;2022-08-03T13:14:32;36.80;56.00
19646;DHT22;9971;52.446;13.452;2022-08-03T13:19:35;37.10;54.80
19646;DHT22;9971;52.446;13.452;2022-08-03T13:24:36;37.20;55.20
19646;DHT22;9971;52.446;13.452;2022-08-03T13:29:39;37.50;53.90
19646;DHT22;9971;52.446;13.452;2022-08-03T13:34:41;37.50;53.30
19646;DHT22;9971;52.446;13.452;2022-08-03T13:39:43;37.00;54.00
19646;DHT22;9971;52.446;13.452;2022-08-03T13:44:46;37.40;53.70
19646;DHT22;9971;52.446;13.452;2022-08-03T13:49:48;37.30;54.30
19646;DHT22;9971;52.446;13.452;2022-08-03T13:54:51;37.30;53.40
19646;DHT22;9971;52.446;13.452;2022-08-03T13:59:53;37.20;53.90
19646;DHT22;9971;52.446;13.452;2022-08-03T14:04:56;37.20;53.00
19646;DHT22;9971;52.446;13.452;2022-08-03T14:09:58;37.20;53.00
19646;DHT22;9971;52.446;13.452;2022-08-03T14:15:00;37.30;53.10
19646;DHT22;9971;52.446;13.452;2022-08-03T14:20:03;37.60;52.80
19646;DHT22;9971;52.446;13.452;2022-08-03T14:25:06;37.90;53.10
19646;DHT22;9971;52.446;13.452;2022-08-03T14:30:09;37.90;52.50
19646;DHT22;9971;52.446;13.452;2022-08-03T14:35:12;37.90;52.00
19646;DHT22;9971;52.446;13.452;2022-08-03T14:40:14;38.10;51.60
19646;DHT22;9971;52.446;13.452;2022-08-03T14:45:17;38.10;51.70
19646;DHT22;9971;52.446;13.452;2022-08-03T14:50:19;38.20;51.50
19646;DHT22;9971;52.446;13.452;2022-08-03T14:55:22;38.00;51.40
19646;DHT22;9971;52.446;13.452;2022-08-03T15:00:24;38.20;51.00
19646;DHT22;9971;52.446;13.452;2022-08-03T15:05:26;38.10;51.60
19646;DHT22;9971;52.446;13.452;2022-08-03T15:10:29;38.10;51.80
19646;DHT22;9971;52.446;13.452;2022-08-03T15:15:31;38.70;51.80
19646;DHT22;9971;52.446;13.452;2022-08-03T15:20:33;38.80;50.40
19646;DHT22;9971;52.446;13.452;2022-08-03T15:25:35;38.60;51.40
19646;DHT22;9971;52.446;13.452;2022-08-03T15:30:38;38.70;51.20
19646;DHT22;9971;52.446;13.452;2022-08-03T15:35:40;38.70;51.90
19646;DHT22;9971;52.446;13.452;2022-08-03T15:40:43;38.50;50.80
19646;DHT22;9971;52.446;13.452;2022-08-03T15:45:44;38.70;52.00
19646;DHT22;9971;52.446;13.452;2022-08-03T15:50:47;38.60;51.20
19646;DHT22;9971;52.446;13.452;2022-08-03T15:55:49;38.00;51.60
19646;DHT22;9971;52.446;13.452;2022-08-03T16:00:51;37.70;52.30
19646;DHT22;9971;52.446;13.452;2022-08-03T16:05:53;38.10;51.80
19646;DHT22;9971;52.446;13.452;2022-08-03T16:10:55;37.80;51.60
19646;DHT22;9971;52.446;13.452;2022-08-03T16:15:58;37.10;53.40
19646;DHT22;9971;52.446;13.452;2022-08-03T16:21:00;37.10;53.20
19646;DHT22;9971;52.446;13.452;2022-08-03T16:26:02;37.20;53.30
19646;DHT22;9971;52.446;13.452;2022-08-03T16:31:04;37.50;52.50
19646;DHT22;9971;52.446;13.452;2022-08-03T16:36:06;37.30;53.50
19646;DHT22;9971;52.446;13.452;2022-08-03T16:41:09;37.30;52.70
19646;DHT22;9971;52.446;13.452;2022-08-03T16:46:11;37.10;53.30
19646;DHT22;9971;52.446;13.452;2022-08-03T16:51:14;36.80;53.60
19646;DHT22;9971;52.446;13.452;2022-08-03T16:56:16;36.90;52.80
19646;DHT22;9971;52.446;13.452;2022-08-03T17:01:19;36.90;53.70
19646;DHT22;9971;52.446;13.452;2022-08-03T17:06:21;36.90;54.30
19646;DHT22;9971;52.446;13.452;2022-08-03T17:11:23;37.00;53.30
19646;DHT22;9971;52.446;13.452;2022-08-03T17:16:25;36.80;53.40
19646;DHT22;9971;52.446;13.452;2022-08-03T17:21:29;36.70;53.60
19646;DHT22;9971;52.446;13.452;2022-08-03T17:26:30;36.60;54.10
19646;DHT22;9971;52.446;13.452;2022-08-03T17:31:32;36.50;53.70
19646;DHT22;9971;52.446;13.452;2022-08-03T17:36:34;35.90;54.70
19646;DHT22;9971;52.446;13.452;2022-08-03T17:41:36;35.60;55.80
19646;DHT22;9971;52.446;13.452;2022-08-03T17:46:38;35.20;55.80
19646;DHT22;9971;52.446;13.452;2022-08-03T17:51:44;34.90;57.20
19646;DHT22;9971;52.446;13.452;2022-08-03T17:57:08;34.80;59.10
19646;DHT22;9971;52.446;13.452;2022-08-03T18:02:41;34.70;57.60
19646;DHT22;9971;52.446;13.452;2022-08-03T18:07:45;34.70;57.90
19646;DHT22;9971;52.446;13.452;2022-08-03T18:12:51;34.40;60.50
19646;DHT22;9971;52.446;13.452;2022-08-03T18:17:51;33.90;59.20
19646;DHT22;9971;52.446;13.452;2022-08-03T18:22:53;33.50;62.40
19646;DHT22;9971;52.446;13.452;2022-08-03T18:27:56;33.10;63.60
19646;DHT22;9971;52.446;13.452;2022-08-03T18:32:58;32.50;69.40
19646;DHT22;9971;52.446;13.452;2022-08-03T18:38:01;32.10;68.10
19646;DHT22;9971;52.446;13.452;2022-08-03T18:43:02;31.80;70.10
19646;DHT22;9971;52.446;13.452;2022-08-03T18:48:27;31.40;74.50
19646;DHT22;9971;52.446;13.452;2022-08-03T18:58:58;30.70;73.80
19646;DHT22;9971;52.446;13.452;2022-08-03T19:03:57;30.40;74.90
19646;DHT22;9971;52.446;13.452;2022-08-03T19:09:03;30.20;79.70
19646;DHT22;9971;52.446;13.452;2022-08-03T19:14:04;29.90;82.50
19646;DHT22;9971;52.446;13.452;2022-08-03T19:19:08;29.60;81.40
19646;DHT22;9971;52.446;13.452;2022-08-03T19:24:10;29.40;80.60
19646;DHT22;9971;52.446;13.452;2022-08-03T19:29:11;29.20;82.60
19646;DHT22;9971;52.446;13.452;2022-08-03T19:34:14;28.90;82.80
19646;DHT22;9971;52.446;13.452;2022-08-03T19:39:15;28.80;84.50
19646;DHT22;9971;52.446;13.452;2022-08-03T19:44:22;28.60;86.30
19646;DHT22;9971;52.446;13.452;2022-08-03T19:49:23;28.40;87.30
19646;DHT22;9971;52.446;13.452;2022-08-03T19:54:22;28.30;88.80
19646;DHT22;9971;52.446;13.452;2022-08-03T19:59:24;28.10;90.90
19646;DHT22;9971;52.446;13.452;2022-08-03T20:04:27;27.90;91.30
19646;DHT22;9971;52.446;13.452;2022-08-03T20:09:30;27.80;91.80
19646;DHT22;9971;52.446;13.452;2022-08-03T20:14:31;27.60;93.30
19646;DHT22;9971;52.446;13.452;2022-08-03T20:19:33;27.50;94.10
19646;DHT22;9971;52.446;13.452;2022-08-03T20:24:36;27.30;95.00
19646;DHT22;9971;52.446;13.452;2022-08-03T20:29:40;27.20;95.50
19646;DHT22;9971;52.446;13.452;2022-08-03T20:34:40;27.00;98.30
19646;DHT22;9971;52.446;13.452;2022-08-03T20:39:42;26.90;99.90
19646;DHT22;9971;52.446;13.452;2022-08-03T20:44:44;26.70;99.90
19646;DHT22;9971;52.446;13.452;2022-08-03T20:49:47;26.70;99.90
19646;DHT22;9971;52.446;13.452;2022-08-03T20:54:49;26.50;99.90
19646;DHT22;9971;52.446;13.452;2022-08-03T20:59:51;26.40;99.90
19646;DHT22;9971;52.446;13.452;2022-08-03T21:04:53;26.30;99.90
19646;DHT22;9971;52.446;13.452;2022-08-03T21:09:56;26.20;99.90
19646;DHT22;9971;52.446;13.452;2022-08-03T21:15:00;26.10;99.90
19646;DHT22;9971;52.446;13.452;2022-08-03T21:20:01;26.00;99.90
19646;DHT22;9971;52.446;13.452;2022-08-03T21:25:03;25.90;99.90
19646;DHT22;9971;52.446;13.452;2022-08-03T21:30:06;25.80;99.90
19646;DHT22;9971;52.446;13.452;2022-08-03T21:35:08;25.70;99.90
19646;DHT22;9971;52.446;13.452;2022-08-03T21:40:11;25.70;99.90
19646;DHT22;9971;52.446;13.452;2022-08-03T21:45:12;25.50;99.90
19646;DHT22;9971;52.446;13.452;2022-08-03T21:50:14;25.50;99.90
19646;DHT22;9971;52.446;13.452;2022-08-03T21:55:16;25.40;99.90
19646;DHT22;9971;52.446;13.452;2022-08-03T22:00:19;25.30;99.90
19646;DHT22;9971;52.446;13.452;2022-08-03T22:05:20;25.20;99.90
19646;DHT22;9971;52.446;13.452;2022-08-03T22:10:22;25.10;99.90
19646;DHT22;9971;52.446;13.452;2022-08-03T22:15:24;25.00;99.90
19646;DHT22;9971;52.446;13.452;2022-08-03T22:20:27;25.00;99.90
19646;DHT22;9971;52.446;13.452;2022-08-03T22:25:31;25.00;99.90
19646;DHT22;9971;52.446;13.452;2022-08-03T22:30:31;24.90;99.90
19646;DHT22;9971;52.446;13.452;2022-08-03T22:35:34;24.80;99.90
19646;DHT22;9971;52.446;13.452;2022-08-03T22:40:36;24.80;99.90
19646;DHT22;9971;52.446;13.452;2022-08-03T22:45:37;24.80;99.90
19646;DHT22;9971;52.446;13.452;2022-08-03T22:50:39;24.70;99.90
19646;DHT22;9971;52.446;13.452;2022-08-03T22:55:42;24.70;99.90
19646;DHT22;9971;52.446;13.452;2022-08-03T23:00:51;24.60;99.90
19646;DHT22;9971;52.446;13.452;2022-08-03T23:05:52;24.50;99.90
19646;DHT22;9971;52.446;13.452;2022-08-03T23:10:55;24.30;99.90
19646;DHT22;9971;52.446;13.452;2022-08-03T23:15:56;24.20;99.90
19646;DHT22;9971;52.446;13.452;2022-08-03T23:20:58;24.20;99.90
19646;DHT22;9971;52.446;13.452;2022-08-03T23:26:00;24.20;99.90
19646;DHT22;9971;52.446;13.452;2022-08-03T23:31:02;24.20;99.90
19646;DHT22;9971;52.446;13.452;2022-08-03T23:36:04;24.10;99.90
19646;DHT22;9971;52.446;13.452;2022-08-03T23:41:06;24.10;99.90
19646;DHT22;9971;52.446;13.452;2022-08-03T23:46:08;24.00;99.90
19646;DHT22;9971;52.446;13.452;2022-08-03T23:51:17;24.00;99.90
19646;DHT22;9971;52.446;13.452;2022-08-03T23:56:22;23.90;99.90
